Time;durP1;ratioP1;P1;durP2;ratioP2;P2;SDS_P1;SDS_P2;PMS_P1;PMS_P2;Temp;Humidity;BMP_temperature;BMP_pressure;BME280_temperature;BME280_humidity;BME280_pressure;Samples;Min_cycle;Max_cycle;Signal;HPM_P1;HPM_P2
2023/12/04 00:05:57;;;;;;;54.63;16.88;;;-5.20;99.90;;;;;;20989659;28;20542;-77
2023/12/04 00:15:58;;;;;;;54.20;18.42;;;-5.10;99.90;;;;;;21016120;28;20031;-76
2023/12/04 00:25:58;;;;;;;58.00;18.42;;;-5.10;99.90;;;;;;21006000;28;20028;-76
2023/12/04 00:35:59;;;;;;;52.40;18.38;;;-5.30;99.90;;;;;;21025444;28;20034;-76
2023/12/04 00:46:00;;;;;;;60.30;17.58;;;-5.40;99.90;;;;;;21003619;28;20039;-76
2023/12/04 00:56:00;;;;;;;54.80;17.25;;;-5.30;99.90;;;;;;21004622;28;20024;-77
2023/12/04 01:06:01;;;;;;;55.28;17.65;;;-5.40;99.90;;;;;;21003478;28;20052;-77
2023/12/04 01:16:02;;;;;;;46.67;18.23;;;-5.20;99.90;;;;;;21007534;28;20142;-76
2023/12/04 01:26:04;;;;;;;44.55;16.73;;;-5.30;99.90;;;;;;21010133;28;20146;-77
2023/12/04 01:36:05;;;;;;;52.90;15.70;;;-5.30;99.90;;;;;;21012050;28;20032;-77
2023/12/04 01:46:06;;;;;;;50.03;17.42;;;-5.40;99.90;;;;;;21005532;28;20031;-77
2023/12/04 01:56:08;;;;;;;51.65;17.27;;;-5.50;99.90;;;;;;20991040;28;20036;-76
2023/12/04 02:06:10;;;;;;;56.13;17.38;;;-5.50;99.90;;;;;;20992971;28;20514;-77
2023/12/04 02:16:14;;;;;;;55.25;18.63;;;-5.60;99.90;;;;;;21018414;28;20558;-75
2023/12/04 02:26:17;;;;;;;58.38;19.10;;;-5.60;99.90;;;;;;21021296;28;20035;-76
2023/12/04 02:36:19;;;;;;;51.08;18.35;;;-5.60;99.90;;;;;;21012960;28;20075;-76
2023/12/04 02:46:20;;;;;;;64.15;19.73;;;-5.60;99.90;;;;;;20992735;28;20044;-76
2023/12/04 02:56:21;;;;;;;54.15;16.60;;;-5.70;99.90;;;;;;21020817;28;20024;-76
2023/12/04 03:06:22;;;;;;;44.42;14.57;;;-5.70;99.90;;;;;;20999004;28;20045;-76
2023/12/04 03:16:23;;;;;;;42.67;13.55;;;-5.70;99.90;;;;;;21023497;28;20031;-76
2023/12/04 03:26:23;;;;;;;51.97;15.85;;;-5.70;99.90;;;;;;21004401;28;20055;-76
2023/12/04 03:36:24;;;;;;;45.47;13.85;;;-5.70;99.90;;;;;;21005285;28;20028;-76
2023/12/04 03:46:25;;;;;;;54.42;16.75;;;-5.60;99.90;;;;;;20989473;28;20055;-75
2023/12/04 03:56:26;;;;;;;53.33;16.00;;;-5.60;99.90;;;;;;21023515;28;20035;-76
2023/12/04 04:06:27;;;;;;;63.08;18.92;;;-5.60;99.90;;;;;;21012993;28;20128;-75
2023/12/04 04:16:27;;;;;;;49.53;18.50;;;-5.50;99.90;;;;;;21005833;28;20551;-76
2023/12/04 04:26:28;;;;;;;80.72;20.35;;;-5.50;99.90;;;;;;21007028;28;20503;-76
2023/12/04 04:36:29;;;;;;;62.97;17.95;;;-5.40;99.90;;;;;;21018649;28;20060;-76
2023/12/04 04:46:29;;;;;;;68.57;18.58;;;-5.40;99.90;;;;;;21001114;28;20151;-76
2023/12/04 04:56:30;;;;;;;69.47;18.67;;;-5.30;99.90;;;;;;20997103;28;20398;-76
2023/12/04 05:06:31;;;;;;;74.07;20.55;;;-5.30;99.90;;;;;;20994840;28;20120;-75
2023/12/04 05:16:32;;;;;;;73.30;19.83;;;-5.30;99.90;;;;;;20995524;28;20059;-76
2023/12/04 05:26:33;;;;;;;90.05;19.80;;;-5.30;99.90;;;;;;20974646;28;20063;-77
2023/12/04 05:36:33;;;;;;;64.53;20.20;;;-5.30;99.90;;;;;;21012763;28;20469;-76
2023/12/04 05:46:34;;;;;;;61.92;17.08;;;-5.30;99.90;;;;;;21024918;28;20098;-75
2023/12/04 05:56:35;;;;;;;75.15;20.95;;;-5.20;99.90;;;;;;21010000;28;20032;-76
2023/12/04 06:06:36;;;;;;;74.00;21.00;;;-5.20;99.90;;;;;;20996709;28;20024;-77
2023/12/04 06:16:37;;;;;;;72.72;20.83;;;-5.20;99.90;;;;;;21029478;28;20032;-76
2023/12/04 06:26:42;;;;;;;83.68;20.63;;;-5.20;99.90;;;;;;21015044;28;20071;-76
2023/12/04 06:36:43;;;;;;;89.18;23.30;;;-5.10;99.90;;;;;;21008255;28;20090;-74
2023/12/04 06:46:50;;;;;;;76.35;21.77;;;-5.10;99.90;;;;;;21029993;28;20025;-76
2023/12/04 06:56:50;;;;;;;79.05;19.52;;;-5.10;99.90;;;;;;21027646;28;20485;-76
2023/12/04 07:06:51;;;;;;;83.32;20.48;;;-4.90;99.90;;;;;;21033104;28;20048;-75
2023/12/04 07:16:52;;;;;;;71.13;19.60;;;-4.80;99.90;;;;;;21033052;28;20037;-76
2023/12/04 07:26:53;;;;;;;64.13;19.73;;;-4.90;99.90;;;;;;21032791;28;20064;-75
2023/12/04 07:36:53;;;;;;;59.60;17.73;;;-4.90;99.90;;;;;;21032195;28;20036;-74
2023/12/04 07:46:54;;;;;;;78.55;20.48;;;-4.80;99.90;;;;;;21012095;28;20029;-75
2023/12/04 07:56:55;;;;;;;65.82;18.50;;;-4.60;99.90;;;;;;20992482;28;20463;-76
2023/12/04 08:06:56;;;;;;;56.55;17.65;;;-4.60;99.90;;;;;;21018457;28;20068;-75
2023/12/04 08:16:57;;;;;;;43.40;14.88;;;-4.30;99.90;;;;;;21022039;28;20021;-74
2023/12/04 08:26:57;;;;;;;64.13;17.08;;;-4.20;99.90;;;;;;21036308;28;20028;-74
2023/12/04 08:36:58;;;;;;;51.80;16.65;;;-4.40;99.90;;;;;;21032059;28;20070;-75
2023/12/04 08:46:59;;;;;;;58.33;15.40;;;-4.20;99.90;;;;;;21012902;28;20024;-75
2023/12/04 08:57:00;;;;;;;46.00;14.55;;;-3.80;99.90;;;;;;21038946;28;20024;-75
2023/12/04 09:07:01;;;;;;;45.38;14.52;;;-3.80;99.90;;;;;;21026850;28;20508;-75
2023/12/04 09:17:03;;;;;;;45.35;15.38;;;-3.70;99.90;;;;;;21022653;28;20016;-75
2023/12/04 09:27:06;;;;;;;54.70;16.77;;;-3.10;99.90;;;;;;21006282;28;20046;-74
2023/12/04 09:37:07;;;;;;;48.97;16.63;;;-3.30;99.90;;;;;;21015497;28;20040;-75
2023/12/04 09:47:10;;;;;;;53.55;18.10;;;-3.40;99.90;;;;;;21029459;28;20119;-76
2023/12/04 09:57:12;;;;;;;52.50;18.08;;;-3.40;99.90;;;;;;21015163;28;20024;-75
2023/12/04 10:07:13;;;;;;;52.58;16.77;;;-3.50;99.90;;;;;;21025818;28;20048;-75
2023/12/04 10:17:16;;;;;;;50.38;17.65;;;-2.70;99.90;;;;;;21026796;28;20051;-75
2023/12/04 10:27:17;;;;;;;42.53;14.68;;;-1.80;99.90;;;;;;21021614;28;20040;-75
2023/12/04 10:37:19;;;;;;;39.50;14.77;;;-2.40;99.90;;;;;;21044262;28;20119;-73
2023/12/04 10:47:21;;;;;;;39.60;15.10;;;-3.00;99.90;;;;;;21040351;28;20028;-73
2023/12/04 10:57:26;;;;;;;59.55;17.00;;;-2.80;99.90;;;;;;21024795;28;20605;-74
2023/12/04 11:07:29;;;;;;;41.97;16.08;;;-2.40;99.90;;;;;;21012357;28;20513;-76
2023/12/04 11:17:34;;;;;;;43.40;15.80;;;-2.40;99.90;;;;;;21015381;28;20036;-75
2023/12/04 11:27:36;;;;;;;46.63;15.95;;;-2.20;99.90;;;;;;21021544;28;20055;-76
2023/12/04 11:37:37;;;;;;;49.28;15.45;;;-2.20;99.90;;;;;;21031720;28;20079;-75
2023/12/04 11:47:53;;;;;;;51.15;17.60;;;-2.10;99.90;;;;;;21031659;28;20038;-76
2023/12/04 11:57:56;;;;;;;45.20;17.48;;;-2.00;99.90;;;;;;21026478;28;20041;-74
2023/12/04 12:08:00;;;;;;;43.88;16.75;;;-2.40;99.90;;;;;;20988299;28;20397;-75
2023/12/04 12:18:01;;;;;;;45.83;16.45;;;-2.00;99.90;;;;;;21031419;28;20088;-75
2023/12/04 12:28:05;;;;;;;53.38;18.15;;;-1.70;99.90;;;;;;21013233;28;20062;-74
2023/12/04 12:38:06;;;;;;;48.22;18.75;;;-1.40;99.90;;;;;;21031869;28;20060;-75
2023/12/04 12:48:13;;;;;;;57.00;20.02;;;-1.50;99.90;;;;;;21021955;28;20077;-75
2023/12/04 12:58:15;;;;;;;51.45;19.00;;;-2.10;99.90;;;;;;21033415;28;20079;-74
2023/12/04 13:08:16;;;;;;;52.15;19.52;;;-2.20;99.90;;;;;;21007156;28;20032;-74
2023/12/04 13:18:16;;;;;;;65.18;19.65;;;-2.00;99.90;;;;;;21011136;28;20031;-74
2023/12/04 13:28:17;;;;;;;62.33;19.10;;;-2.10;99.90;;;;;;21015101;28;20039;-75
2023/12/04 13:38:18;;;;;;;58.20;19.30;;;-2.20;99.90;;;;;;21013410;28;20032;-75
2023/12/04 13:48:21;;;;;;;53.90;17.85;;;-2.30;99.90;;;;;;21020054;28;20495;-75
2023/12/04 13:58:44;;;;;;;66.03;20.40;;;-2.10;99.90;;;;;;21036167;28;20488;-74
2023/12/04 14:08:45;;;;;;;59.97;19.27;;;-2.10;99.90;;;;;;21029015;28;20055;-76
2023/12/04 14:18:46;;;;;;;63.22;20.63;;;-2.00;99.90;;;;;;21043462;28;20028;-76
2023/12/04 14:28:47;;;;;;;54.20;19.95;;;-2.10;99.90;;;;;;21049575;28;20036;-75
2023/12/04 14:38:47;;;;;;;68.97;20.13;;;-2.10;99.90;;;;;;21047332;28;20508;-74
2023/12/04 14:48:48;;;;;;;59.85;19.60;;;-2.10;99.90;;;;;;21025017;28;20436;-74
2023/12/04 15:10:00;;;;;;;67.53;21.45;;;-2.20;99.90;;;;;;21024285;28;20028;-74
2023/12/04 15:19:55;;;;;;;62.20;20.92;;;-2.10;99.90;;;;;;21025594;28;20040;-74
2023/12/04 15:29:56;;;;;;;60.05;19.13;;;-2.10;99.90;;;;;;21026411;28;20033;-75
2023/12/04 15:39:58;;;;;;;61.67;20.17;;;-2.20;99.90;;;;;;21034093;28;20031;-75
2023/12/04 15:49:59;;;;;;;72.80;21.55;;;-2.10;99.90;;;;;;21032817;28;20025;-75
2023/12/04 16:00:00;;;;;;;70.25;21.90;;;-2.20;99.90;;;;;;21026925;28;20559;-76
2023/12/04 16:10:00;;;;;;;77.00;24.17;;;-2.30;99.90;;;;;;21040454;28;20028;-75
2023/12/04 16:20:09;;;;;;;65.10;22.38;;;-2.20;99.90;;;;;;21043690;28;20028;-75
2023/12/04 16:30:11;;;;;;;63.60;23.23;;;-2.20;99.90;;;;;;21002576;28;20032;-75
2023/12/04 16:40:12;;;;;;;62.42;20.63;;;-2.20;99.90;;;;;;21031847;28;20032;-75
2023/12/04 16:50:12;;;;;;;65.63;21.33;;;-2.20;99.90;;;;;;21042188;28;20026;-76
2023/12/04 17:00:14;;;;;;;57.40;21.38;;;-2.20;99.90;;;;;;21032858;28;20039;-75
2023/12/04 17:10:15;;;;;;;74.90;24.23;;;-2.20;99.90;;;;;;21015942;28;20024;-75
2023/12/04 17:20:16;;;;;;;81.07;24.17;;;-2.20;99.90;;;;;;21012960;28;20031;-75
2023/12/04 17:30:17;;;;;;;70.10;23.65;;;-2.10;99.90;;;;;;21041174;28;20032;-75
2023/12/04 17:40:18;;;;;;;75.00;23.27;;;-2.00;99.90;;;;;;21033527;28;20031;-75
2023/12/04 17:50:20;;;;;;;61.88;22.33;;;-2.00;99.90;;;;;;21021090;28;20033;-76
2023/12/04 18:00:21;;;;;;;55.13;20.70;;;-2.00;99.90;;;;;;21013642;28;20043;-75
2023/12/04 18:10:22;;;;;;;62.20;21.58;;;-2.00;99.90;;;;;;21009316;28;20130;-76
2023/12/04 18:20:22;;;;;;;54.65;21.23;;;-2.00;99.90;;;;;;21034817;28;20035;-76
2023/12/04 18:30:24;;;;;;;56.47;20.90;;;-2.00;99.90;;;;;;20996044;28;20032;-76
2023/12/04 18:40:25;;;;;;;54.97;20.38;;;-2.00;99.90;;;;;;20992436;28;20044;-76
2023/12/04 18:50:30;;;;;;;60.17;20.40;;;-2.00;99.90;;;;;;21015992;28;20032;-74
2023/12/04 19:00:31;;;;;;;60.72;22.25;;;-2.00;99.90;;;;;;20958461;28;20047;-73
2023/12/04 19:10:32;;;;;;;65.20;22.40;;;-2.00;99.90;;;;;;20922456;28;20033;-76
2023/12/04 19:20:33;;;;;;;70.63;21.73;;;-2.00;99.90;;;;;;20932014;28;20029;-74
2023/12/04 19:30:35;;;;;;;70.28;23.35;;;-2.00;99.90;;;;;;20918326;28;20052;-75
2023/12/04 19:40:36;;;;;;;72.55;26.25;;;-1.90;99.90;;;;;;21014177;28;20086;-74
2023/12/04 19:50:38;;;;;;;67.95;23.65;;;-1.80;99.90;;;;;;20988521;28;20437;-74
2023/12/04 20:00:39;;;;;;;67.80;22.92;;;-1.80;99.90;;;;;;21031362;28;20032;-73
2023/12/04 20:10:40;;;;;;;77.30;25.65;;;-1.80;99.90;;;;;;20982496;28;20080;-75
2023/12/04 20:20:41;;;;;;;74.53;24.08;;;-1.70;99.90;;;;;;20998180;28;20492;-76
2023/12/04 20:30:42;;;;;;;81.82;25.08;;;-1.60;99.90;;;;;;21024419;28;20042;-76
2023/12/04 20:40:46;;;;;;;73.88;26.90;;;-1.60;99.90;;;;;;21011434;28;20029;-75
2023/12/04 20:50:47;;;;;;;79.05;25.50;;;-1.60;99.90;;;;;;21040528;28;20038;-75
2023/12/04 21:00:48;;;;;;;81.40;29.77;;;-1.60;99.90;;;;;;20986755;28;20119;-75
2023/12/04 21:10:48;;;;;;;71.47;24.58;;;-1.60;99.90;;;;;;21031143;28;20399;-75
2023/12/04 21:20:49;;;;;;;78.10;25.45;;;-1.50;99.90;;;;;;21022376;28;20039;-75
2023/12/04 21:30:52;;;;;;;77.70;26.67;;;-1.50;99.90;;;;;;21042625;28;20043;-77
2023/12/04 21:40:52;;;;;;;81.32;28.30;;;-1.40;99.90;;;;;;21044338;28;20642;-74
2023/12/04 21:50:53;;;;;;;82.93;27.30;;;-1.20;99.90;;;;;;21044644;28;20029;-75
2023/12/04 22:00:57;;;;;;;83.28;28.70;;;-1.20;99.90;;;;;;21045365;28;20048;-74
2023/12/04 22:10:58;;;;;;;78.43;27.83;;;-1.10;99.90;;;;;;21050775;28;20028;-75
2023/12/04 22:20:58;;;;;;;71.15;27.48;;;-1.00;99.90;;;;;;21042597;28;20021;-75
2023/12/04 22:30:59;;;;;;;81.70;27.83;;;-1.00;99.90;;;;;;21058520;28;20144;-75
2023/12/04 22:41:00;;;;;;;72.43;26.35;;;-0.90;99.90;;;;;;21063030;28;20025;-75
2023/12/04 22:51:01;;;;;;;63.88;24.55;;;-0.90;99.90;;;;;;21025544;28;20036;-75
2023/12/04 23:01:02;;;;;;;75.03;26.73;;;-0.80;99.90;;;;;;21058111;28;20028;-76
2023/12/04 23:11:04;;;;;;;68.35;24.75;;;-0.80;99.90;;;;;;21039804;28;20341;-75
2023/12/04 23:21:07;;;;;;;73.75;26.33;;;-0.70;99.90;;;;;;21054434;28;20034;-75
2023/12/04 23:31:08;;;;;;;72.05;24.02;;;-0.70;99.90;;;;;;21049471;28;20034;-75
2023/12/04 23:41:09;;;;;;;78.90;25.92;;;-0.70;99.90;;;;;;21041869;28;20055;-75
2023/12/04 23:51:10;;;;;;;67.72;24.58;;;-0.60;99.90;;;;;;21055351;28;20024;-75
